createdAt,value
2023-02-22T00:02:10.996Z,8.04
2023-02-22T00:07:14.908Z,8.11
2023-02-22T00:12:16.359Z,8.04
2023-02-22T00:17:20.450Z,8.04
2023-02-22T00:22:21.891Z,7.99
2023-02-22T00:27:23.586Z,7.99
2023-02-22T00:32:25.030Z,7.89
2023-02-22T00:37:26.571Z,7.74
2023-02-22T00:42:27.985Z,7.69
2023-02-22T00:47:30.224Z,7.60
2023-02-22T00:52:31.737Z,7.60
2023-02-22T00:57:36.567Z,7.43
2023-02-22T01:02:39.682Z,7.27
2023-02-22T01:07:41.466Z,7.13
2023-02-22T01:12:43.208Z,7.18
2023-02-22T01:17:44.617Z,7.14
2023-02-22T01:22:48.538Z,7.07
2023-02-22T01:27:51.210Z,7.19
2023-02-22T01:32:52.975Z,7.32
2023-02-22T01:37:54.971Z,7.44
2023-02-22T01:43:02.309Z,7.49
2023-02-22T01:48:14.847Z,7.53
2023-02-22T01:53:19.029Z,7.50
2023-02-22T01:58:22.369Z,7.49
2023-02-22T02:03:28.308Z,7.42
2023-02-22T02:08:59.518Z,7.37
2023-02-22T02:14:01.219Z,7.34
2023-02-22T02:19:05.540Z,7.23
2023-02-22T02:24:41.834Z,7.18
2023-02-22T02:30:20.575Z,7.21
2023-02-22T02:35:35.776Z,7.25
2023-02-22T02:41:08.577Z,7.27
2023-02-22T02:46:19.067Z,7.31
2023-02-22T02:51:22.509Z,7.43
2023-02-22T02:56:24.570Z,7.52
2023-02-22T03:01:44.654Z,7.44
2023-02-22T03:06:46.046Z,7.40
2023-02-22T03:12:05.813Z,7.41
2023-02-22T03:17:21.031Z,7.48
2023-02-22T03:22:37.718Z,7.52
2023-02-22T03:27:55.564Z,7.55
2023-02-22T03:33:03.222Z,7.55
2023-02-22T03:38:09.561Z,7.52
2023-02-22T03:43:16.513Z,7.61
2023-02-22T03:48:28.650Z,7.61
2023-02-22T03:53:32.803Z,7.57
2023-02-22T03:58:36.539Z,7.54
2023-02-22T04:03:37.953Z,7.43
2023-02-22T04:08:39.675Z,7.48
2023-02-22T04:13:41.356Z,7.56
2023-02-22T04:18:42.973Z,7.64
2023-02-22T04:23:44.430Z,7.58
2023-02-22T04:28:45.867Z,7.66
2023-02-22T04:33:47.474Z,7.68
2023-02-22T04:38:48.959Z,7.71
2023-02-22T04:43:50.411Z,7.69
2023-02-22T04:48:51.878Z,7.73
2023-02-22T04:53:53.299Z,7.77
2023-02-22T04:58:54.722Z,7.77
2023-02-22T05:03:56.166Z,7.80
2023-02-22T05:08:57.727Z,7.84
2023-02-22T05:13:59.278Z,7.80
2023-02-22T05:19:00.784Z,7.83
2023-02-22T05:24:02.230Z,7.72
2023-02-22T05:29:03.704Z,7.72
2023-02-22T05:34:05.130Z,7.70
2023-02-22T05:39:06.627Z,7.70
2023-02-22T05:44:08.197Z,7.75
2023-02-22T05:49:09.667Z,7.82
2023-02-22T05:54:11.124Z,7.86
2023-02-22T05:59:12.591Z,7.90
2023-02-22T06:04:14.052Z,7.94
2023-02-22T06:09:15.685Z,7.95
2023-02-22T06:14:17.099Z,8.05
2023-02-22T06:19:18.519Z,8.13
2023-02-22T06:24:21.038Z,8.04
2023-02-22T06:29:24.185Z,7.99
2023-02-22T06:34:25.702Z,8.02
2023-02-22T06:39:27.221Z,8.00
2023-02-22T06:44:28.640Z,8.04
2023-02-22T06:49:30.050Z,8.06
2023-02-22T06:54:31.494Z,8.11
2023-02-22T06:59:32.904Z,8.20
2023-02-22T07:04:35.596Z,8.38
2023-02-22T07:09:38.477Z,8.38
2023-02-22T07:14:39.971Z,8.46
2023-02-22T07:19:41.406Z,8.55
2023-02-22T07:24:43.225Z,8.56
2023-02-22T07:29:44.681Z,8.60
2023-02-22T07:34:46.111Z,8.63
2023-02-22T07:39:47.567Z,8.72
2023-02-22T07:44:49.001Z,8.68
2023-02-22T07:49:50.517Z,8.59
2023-02-22T07:54:52.025Z,8.64
2023-02-22T07:59:53.682Z,8.61
2023-02-22T08:04:55.097Z,8.79
2023-02-22T08:09:56.501Z,9.00
2023-02-22T08:14:57.957Z,8.99
2023-02-22T08:19:59.479Z,8.95
2023-02-22T08:25:00.980Z,8.94
2023-02-22T08:30:02.447Z,9.13
2023-02-22T08:35:04.213Z,9.16
2023-02-22T08:40:05.989Z,9.24
2023-02-22T08:45:07.979Z,9.47
2023-02-22T08:50:15.615Z,9.47
2023-02-22T08:55:20.349Z,9.55
2023-02-22T09:00:25.271Z,9.63
2023-02-22T09:05:26.888Z,9.66
2023-02-22T09:10:31.242Z,9.62
2023-02-22T09:15:35.947Z,9.63
2023-02-22T09:20:37.515Z,9.74
2023-02-22T09:25:40.868Z,9.68
2023-02-22T09:30:43.113Z,9.80
2023-02-22T09:35:46.705Z,9.75
2023-02-22T09:40:54.691Z,9.62
2023-02-22T09:46:13.418Z,9.75
2023-02-22T09:51:18.431Z,9.66
2023-02-22T09:56:21.110Z,9.80
2023-02-22T10:01:27.016Z,9.70
2023-02-22T10:06:29.864Z,9.73
2023-02-22T10:11:48.773Z,9.96
2023-02-22T10:17:04.131Z,10.04
2023-02-22T10:22:16.989Z,10.09
2023-02-22T10:27:34.219Z,10.24
2023-02-22T10:32:47.955Z,10.32
2023-02-22T10:37:59.207Z,10.53
2023-02-22T10:43:06.559Z,10.72
2023-02-22T10:48:18.524Z,10.72
2023-02-22T10:53:20.123Z,10.69
2023-02-22T10:58:21.667Z,10.65
2023-02-22T11:03:24.229Z,10.70
2023-02-22T11:08:32.821Z,10.62
2023-02-22T11:13:39.413Z,10.46
2023-02-22T11:18:40.889Z,10.43
2023-02-22T11:23:44.981Z,10.52
2023-02-22T11:28:56.079Z,10.46
2023-02-22T11:33:59.009Z,10.54
2023-02-22T11:39:01.067Z,10.56
2023-02-22T11:44:21.113Z,10.56
2023-02-22T11:49:36.821Z,10.58
2023-02-22T11:55:02.026Z,10.50
2023-02-22T12:00:24.645Z,10.44
2023-02-22T12:05:26.408Z,10.57
2023-02-22T12:10:38.936Z,10.72
2023-02-22T12:15:56.246Z,10.67
2023-02-22T12:21:02.568Z,10.64
2023-02-22T12:26:14.523Z,11.06
2023-02-22T12:31:25.662Z,11.00
2023-02-22T12:36:38.651Z,10.98
2023-02-22T12:41:48.541Z,10.97
2023-02-22T12:46:53.442Z,10.93
2023-02-22T12:52:09.517Z,11.01
2023-02-22T12:57:36.139Z,10.95
2023-02-22T13:02:45.465Z,10.92
2023-02-22T13:08:02.479Z,11.05
2023-02-22T13:13:29.851Z,10.98
2023-02-22T13:18:57.421Z,11.03
2023-02-22T13:24:38.072Z,10.93
2023-02-22T13:29:55.314Z,11.02
2023-02-22T13:35:14.650Z,11.03
2023-02-22T13:40:22.095Z,10.98
2023-02-22T13:45:53.350Z,11.09
2023-02-22T13:51:20.657Z,11.13
2023-02-22T13:56:26.672Z,11.10
2023-02-22T14:01:53.460Z,11.07
2023-02-22T14:07:04.310Z,10.88
2023-02-22T14:12:06.005Z,11.06
2023-02-22T14:17:24.042Z,11.04
2023-02-22T14:22:28.677Z,11.06
2023-02-22T14:27:40.294Z,10.99
2023-02-22T14:32:41.802Z,11.24
2023-02-22T14:37:49.230Z,10.79
2023-02-22T14:43:01.908Z,10.65
2023-02-22T14:48:27.271Z,10.38
2023-02-22T14:53:44.224Z,10.48
2023-02-22T14:58:49.569Z,10.45
2023-02-22T15:04:02.130Z,10.72
2023-02-22T15:09:28.534Z,10.55
2023-02-22T15:14:37.513Z,10.50
2023-02-22T15:19:41.616Z,10.25
2023-02-22T15:24:43.130Z,10.23
2023-02-22T15:29:45.369Z,10.17
2023-02-22T15:34:46.881Z,10.01
2023-02-22T15:39:48.330Z,10.01
2023-02-22T15:44:53.750Z,9.90
2023-02-22T15:50:18.379Z,9.91
2023-02-22T15:55:25.618Z,9.87
2023-02-22T16:00:37.132Z,9.79
2023-02-22T16:05:44.187Z,9.76
2023-02-22T16:11:04.486Z,9.77
2023-02-22T16:16:22.452Z,9.77
2023-02-22T16:21:23.932Z,9.72
2023-02-22T16:26:35.516Z,9.54
2023-02-22T16:31:39.830Z,9.58
2023-02-22T16:36:47.368Z,9.48
2023-02-22T16:41:50.795Z,9.43
2023-02-22T16:46:57.700Z,9.43
2023-02-22T16:52:01.478Z,9.39
2023-02-22T16:57:06.224Z,9.26
2023-02-22T17:02:13.453Z,9.29
2023-02-22T17:07:29.831Z,9.27
2023-02-22T17:12:32.107Z,9.21
2023-02-22T17:17:33.555Z,9.17
2023-02-22T17:22:34.960Z,9.16
2023-02-22T17:27:36.376Z,9.09
2023-02-22T17:32:37.860Z,9.08
2023-02-22T17:37:39.300Z,8.92
2023-02-22T17:42:43.300Z,8.98
2023-02-22T17:47:44.832Z,8.94
2023-02-22T17:52:46.783Z,8.92
2023-02-22T17:57:58.212Z,8.86
2023-02-22T18:03:10.832Z,8.81
2023-02-22T18:08:13.266Z,8.85
2023-02-22T18:13:19.624Z,8.85
2023-02-22T18:18:22.205Z,8.84
2023-02-22T18:23:27.815Z,8.67
2023-02-22T18:28:31.178Z,8.57
2023-02-22T18:33:32.681Z,8.41
2023-02-22T18:38:34.135Z,8.44
2023-02-22T18:43:36.310Z,8.07
2023-02-22T18:48:38.951Z,7.91
2023-02-22T18:53:46.598Z,7.85
2023-02-22T18:58:52.388Z,7.70
2023-02-22T19:03:54.108Z,7.76
2023-02-22T19:08:55.530Z,7.56
2023-02-22T19:13:58.267Z,7.49
2023-02-22T19:18:59.783Z,7.53
2023-02-22T19:24:01.647Z,7.22
2023-02-22T19:29:08.424Z,7.11
2023-02-22T19:34:12.019Z,7.09
2023-02-22T19:39:19.174Z,6.88
2023-02-22T19:44:20.960Z,6.73
2023-02-22T19:54:30.263Z,6.65
2023-02-22T19:59:31.684Z,6.56
2023-02-22T20:04:34.143Z,6.44
2023-02-22T20:09:43.156Z,6.41
2023-02-22T20:14:46.285Z,6.40
2023-02-22T20:19:48.848Z,6.29
2023-02-22T20:24:50.377Z,6.22
2023-02-22T20:29:51.814Z,6.28
2023-02-22T20:34:53.241Z,6.23
2023-02-22T20:39:54.660Z,6.10
2023-02-22T20:45:01.630Z,6.15
2023-02-22T20:50:05.629Z,6.08
2023-02-22T20:55:11.412Z,6.02
2023-02-22T21:00:14.490Z,5.87
2023-02-22T21:05:16.110Z,5.77
2023-02-22T21:10:21.056Z,5.82
2023-02-22T21:15:25.882Z,5.97
2023-02-22T21:20:27.338Z,5.91
2023-02-22T21:25:31.504Z,5.72
2023-02-22T21:30:33.311Z,5.93
2023-02-22T21:35:40.392Z,5.68
2023-02-22T21:40:42.358Z,5.87
2023-02-22T21:45:43.947Z,5.81
2023-02-22T21:50:45.419Z,5.73
2023-02-22T21:55:46.856Z,5.77
2023-02-22T22:00:48.628Z,5.75
2023-02-22T22:05:50.057Z,5.86
2023-02-22T22:10:55.307Z,5.90
2023-02-22T22:16:03.367Z,5.68
2023-02-22T22:21:10.764Z,5.65
2023-02-22T22:26:14.293Z,5.52
2023-02-22T22:31:18.049Z,5.39
2023-02-22T22:36:23.739Z,5.31
2023-02-22T22:41:28.124Z,5.17
2023-02-22T22:46:29.754Z,5.25
2023-02-22T22:51:33.557Z,4.94
2023-02-22T22:56:37.794Z,4.99
2023-02-22T23:01:44.639Z,4.81
2023-02-22T23:06:50.720Z,4.79
2023-02-22T23:11:57.820Z,4.76
2023-02-22T23:17:03.625Z,4.75
2023-02-22T23:22:07.029Z,4.79
2023-02-22T23:27:10.681Z,4.83
2023-02-22T23:32:14.180Z,4.71
2023-02-22T23:37:19.186Z,4.57
2023-02-22T23:42:23.000Z,4.69
2023-02-22T23:47:24.761Z,4.57
2023-02-22T23:52:29.856Z,4.51
2023-02-22T23:57:32.815Z,4.60
